createdAt,value
2023-01-11T00:00:15.225Z,3.00
2023-01-11T00:02:41.844Z,3.00
2023-01-11T00:05:09.568Z,3.00
2023-01-11T00:07:36.161Z,3.10
2023-01-11T00:10:04.978Z,3.10
2023-01-11T00:12:31.564Z,3.20
2023-01-11T00:14:58.125Z,3.20
2023-01-11T00:17:24.699Z,3.20
2023-01-11T00:19:51.440Z,3.10
2023-01-11T00:22:20.129Z,3.20
2023-01-11T00:24:46.700Z,3.20
2023-01-11T00:27:13.287Z,3.30
2023-01-11T00:29:39.864Z,3.20
2023-01-11T00:32:06.529Z,3.30
2023-01-11T00:34:33.075Z,3.30
2023-01-11T00:36:59.640Z,3.30
2023-01-11T00:39:26.218Z,3.30
2023-01-11T00:42:11.477Z,3.30
2023-01-11T00:44:56.563Z,3.40
2023-01-11T00:47:41.649Z,3.40
2023-01-11T00:50:08.612Z,3.40
2023-01-11T00:52:35.208Z,3.40
2023-01-11T00:55:01.846Z,3.40
2023-01-11T00:57:28.480Z,3.50
2023-01-11T00:59:55.080Z,3.50
2023-01-11T01:02:22.564Z,3.50
2023-01-11T01:04:49.353Z,3.60
2023-01-11T01:07:16.028Z,3.60
2023-01-11T01:09:42.623Z,3.60
2023-01-11T01:12:09.345Z,5.40
2023-01-11T01:14:36.443Z,3.60
2023-01-11T01:17:07.709Z,3.70
2023-01-11T01:19:35.486Z,3.70
2023-01-11T01:22:02.460Z,3.70
2023-01-11T01:24:29.343Z,3.60
2023-01-11T01:26:56.197Z,3.60
2023-01-11T01:29:23.186Z,3.60
2023-01-11T01:31:49.843Z,3.60
2023-01-11T01:34:16.424Z,4.30
2023-01-11T01:36:43.010Z,3.50
2023-01-11T01:39:10.591Z,3.50
2023-01-11T01:41:37.232Z,3.50
2023-01-11T01:44:05.580Z,3.50
2023-01-11T01:46:33.422Z,3.50
2023-01-11T01:49:02.790Z,3.50
2023-01-11T01:51:32.385Z,3.50
2023-01-11T01:54:00.324Z,3.50
2023-01-11T01:56:34.770Z,3.40
2023-01-11T01:59:05.437Z,3.50
2023-01-11T02:01:47.372Z,3.40
2023-01-11T02:04:23.219Z,3.40
2023-01-11T02:06:50.979Z,3.30
2023-01-11T02:09:37.894Z,3.40
2023-01-11T02:12:05.777Z,3.40
2023-01-11T02:14:32.903Z,3.50
2023-01-11T02:16:59.484Z,3.50
2023-01-11T02:19:52.520Z,3.50
2023-01-11T02:22:33.301Z,3.40
2023-01-11T02:25:14.297Z,3.60
2023-01-11T02:27:53.067Z,3.70
2023-01-11T02:30:26.434Z,3.70
2023-01-11T02:32:52.979Z,3.80
2023-01-11T02:35:38.338Z,3.80
2023-01-11T02:38:08.604Z,3.80
2023-01-11T02:40:38.539Z,3.80
2023-01-11T02:43:23.782Z,3.80
2023-01-11T02:45:54.274Z,3.90
2023-01-11T02:48:31.893Z,3.80
2023-01-11T02:51:08.215Z,3.80
2023-01-11T02:53:37.816Z,3.90
2023-01-11T02:56:07.143Z,3.80
2023-01-11T02:58:35.348Z,3.80
2023-01-11T03:01:02.178Z,3.80
2023-01-11T03:03:29.491Z,3.80
2023-01-11T03:05:56.077Z,3.70
2023-01-11T03:08:31.821Z,3.80
2023-01-11T03:11:07.440Z,3.80
2023-01-11T03:13:41.072Z,3.80
2023-01-11T03:16:34.064Z,3.70
2023-01-11T03:19:09.812Z,3.80
2023-01-11T03:21:36.347Z,3.90
2023-01-11T03:24:21.928Z,4.00
2023-01-11T03:26:48.474Z,4.00
2023-01-11T03:29:44.467Z,4.00
2023-01-11T03:32:11.011Z,4.00
2023-01-11T03:34:43.818Z,4.00
2023-01-11T03:37:20.943Z,4.10
2023-01-11T03:40:07.778Z,4.10
2023-01-11T03:42:35.270Z,4.10
2023-01-11T03:45:02.955Z,4.20
2023-01-11T03:47:30.257Z,4.10
2023-01-11T03:50:04.707Z,4.20
2023-01-11T03:52:36.039Z,4.10
2023-01-11T03:55:04.303Z,4.00
2023-01-11T03:57:36.103Z,4.00
2023-01-11T04:00:03.679Z,4.10
2023-01-11T04:02:34.499Z,4.10
2023-01-11T04:05:01.576Z,4.10
2023-01-11T04:07:28.343Z,4.00
2023-01-11T04:09:54.917Z,4.00
2023-01-11T04:12:21.476Z,4.00
2023-01-11T04:14:48.043Z,4.20
2023-01-11T04:17:14.755Z,4.20
2023-01-11T04:19:42.216Z,4.30
2023-01-11T04:22:08.791Z,5.50
2023-01-11T04:24:35.530Z,4.30
2023-01-11T04:27:02.123Z,4.30
2023-01-11T04:29:28.694Z,4.30
2023-01-11T04:31:55.513Z,4.40
2023-01-11T04:34:22.117Z,4.40
2023-01-11T04:36:48.723Z,4.40
2023-01-11T04:39:15.422Z,4.40
2023-01-11T04:42:00.559Z,4.50
2023-01-11T04:44:27.138Z,4.50
2023-01-11T04:46:53.751Z,4.50
2023-01-11T04:49:20.328Z,4.50
2023-01-11T04:51:46.901Z,4.70
2023-01-11T04:54:13.528Z,4.60
2023-01-11T04:56:40.107Z,4.70
2023-01-11T04:59:06.727Z,4.80
2023-01-11T05:01:33.439Z,4.80
2023-01-11T05:04:00.306Z,4.90
2023-01-11T05:06:27.020Z,4.90
2023-01-11T05:08:53.601Z,4.90
2023-01-11T05:11:20.290Z,4.90
2023-01-11T05:13:46.857Z,4.90
2023-01-11T05:16:14.962Z,4.90
2023-01-11T05:18:41.546Z,5.00
2023-01-11T05:21:09.279Z,5.10
2023-01-11T05:23:38.818Z,5.10
2023-01-11T05:26:12.864Z,5.10
2023-01-11T05:28:39.421Z,5.10
2023-01-11T05:31:05.997Z,5.10
2023-01-11T05:33:32.603Z,5.10
2023-01-11T05:36:00.027Z,5.20
2023-01-11T05:38:26.961Z,5.20
2023-01-11T05:40:57.565Z,5.20
2023-01-11T05:43:24.215Z,5.20
2023-01-11T05:45:51.079Z,5.20
2023-01-11T05:48:17.913Z,5.10
2023-01-11T05:50:44.575Z,5.20
2023-01-11T05:53:11.129Z,5.30
2023-01-11T05:55:37.772Z,5.30
2023-01-11T05:58:05.335Z,5.30
2023-01-11T06:00:32.004Z,5.40
2023-01-11T06:03:00.234Z,5.40
2023-01-11T06:05:27.042Z,5.40
2023-01-11T06:07:53.831Z,5.40
2023-01-11T06:10:20.449Z,5.40
2023-01-11T06:12:51.243Z,5.40
2023-01-11T06:15:17.803Z,5.40
2023-01-11T06:17:44.404Z,5.50
2023-01-11T06:20:11.411Z,5.50
2023-01-11T06:22:37.977Z,5.60
2023-01-11T06:25:04.820Z,5.60
2023-01-11T06:27:31.407Z,5.60
2023-01-11T06:29:57.977Z,5.60
2023-01-11T06:32:24.550Z,5.70
2023-01-11T06:34:51.306Z,5.70
2023-01-11T06:37:17.907Z,5.70
2023-01-11T06:39:44.733Z,5.60
2023-01-11T06:42:11.312Z,5.60
2023-01-11T06:44:37.874Z,5.60
2023-01-11T06:47:04.473Z,5.60
2023-01-11T06:49:31.026Z,5.60
2023-01-11T06:51:57.615Z,5.60
2023-01-11T06:54:25.622Z,5.70
2023-01-11T06:56:52.266Z,5.70
2023-01-11T06:59:18.834Z,5.70
2023-01-11T07:01:45.453Z,5.80
2023-01-11T07:04:13.234Z,5.80
2023-01-11T07:06:39.940Z,5.80
2023-01-11T07:09:06.527Z,5.80
2023-01-11T07:11:34.875Z,5.80
2023-01-11T07:14:01.536Z,5.80
2023-01-11T07:16:28.330Z,5.80
2023-01-11T07:18:54.897Z,5.80
2023-01-11T07:21:21.477Z,5.80
2023-01-11T07:23:48.908Z,5.80
2023-01-11T07:26:17.275Z,5.90
2023-01-11T07:28:44.051Z,5.90
2023-01-11T07:31:10.678Z,5.90
2023-01-11T07:33:37.386Z,5.90
2023-01-11T07:36:06.283Z,6.00
2023-01-11T07:38:32.843Z,6.00
2023-01-11T07:40:59.432Z,6.00
2023-01-11T07:43:26.903Z,6.00
2023-01-11T07:45:53.690Z,6.10
2023-01-11T07:48:24.789Z,6.10
2023-01-11T07:50:54.080Z,6.20
2023-01-11T07:53:20.824Z,6.10
2023-01-11T07:55:47.473Z,6.20
2023-01-11T07:58:14.582Z,6.20
2023-01-11T08:00:41.593Z,6.20
2023-01-11T08:03:08.379Z,6.20
2023-01-11T08:05:35.083Z,6.30
2023-01-11T08:08:02.096Z,6.40
2023-01-11T08:10:28.904Z,6.40
2023-01-11T08:13:14.559Z,6.40
2023-01-11T08:15:44.192Z,6.50
2023-01-11T08:18:11.807Z,6.60
2023-01-11T08:20:39.157Z,6.70
2023-01-11T08:23:06.317Z,6.70
2023-01-11T08:25:33.143Z,6.80
2023-01-11T08:28:03.351Z,6.90
2023-01-11T08:30:30.354Z,6.90
2023-01-11T08:32:57.786Z,7.00
2023-01-11T08:35:25.160Z,7.10
2023-01-11T08:37:51.838Z,7.10
2023-01-11T08:40:18.424Z,7.20
2023-01-11T08:42:45.060Z,7.20
2023-01-11T08:45:11.636Z,7.20
2023-01-11T08:47:38.226Z,7.20
2023-01-11T08:50:05.293Z,7.20
2023-01-11T08:52:31.931Z,7.30
2023-01-11T08:54:58.511Z,7.30
2023-01-11T08:57:25.140Z,7.50
2023-01-11T08:59:51.700Z,7.50
2023-01-11T09:02:18.280Z,7.60
2023-01-11T09:04:44.855Z,7.60
2023-01-11T09:07:11.425Z,7.60
2023-01-11T09:09:37.996Z,7.70
2023-01-11T09:12:05.852Z,7.90
2023-01-11T09:14:32.582Z,7.80
2023-01-11T09:16:59.271Z,7.90
2023-01-11T09:19:26.075Z,8.00
2023-01-11T09:21:53.358Z,8.10
2023-01-11T09:24:19.985Z,8.20
2023-01-11T09:26:46.776Z,8.30
2023-01-11T09:29:13.951Z,8.30
2023-01-11T09:31:40.956Z,8.50
2023-01-11T09:34:08.295Z,8.60
2023-01-11T09:36:36.313Z,8.60
2023-01-11T09:39:07.612Z,8.80
2023-01-11T09:41:56.497Z,8.90
2023-01-11T09:44:26.656Z,8.80
2023-01-11T09:46:56.433Z,8.90
2023-01-11T09:49:27.149Z,9.00
2023-01-11T09:52:01.532Z,9.10
2023-01-11T09:54:28.267Z,9.20
2023-01-11T09:57:06.845Z,9.40
2023-01-11T09:59:46.654Z,9.50
2023-01-11T10:02:28.368Z,9.70
2023-01-11T10:05:18.528Z,9.80
2023-01-11T10:18:30.454Z,10.10
2023-01-11T10:19:38.623Z,10.20
2023-01-11T10:22:24.645Z,10.30
2023-01-11T10:25:16.938Z,10.50
2023-01-11T10:27:57.617Z,10.60
2023-01-11T10:30:32.618Z,10.80
2023-01-11T10:33:37.925Z,10.90
2023-01-11T10:36:45.000Z,10.90
2023-01-11T10:39:35.729Z,11.10
2023-01-11T10:42:10.785Z,11.30
2023-01-11T10:44:47.401Z,11.30
2023-01-11T10:47:16.377Z,11.40
2023-01-11T10:49:57.130Z,11.40
2023-01-11T10:52:29.834Z,11.40
2023-01-11T10:54:58.660Z,11.60
2023-01-11T10:57:31.020Z,11.70
2023-01-11T11:00:09.339Z,11.70
2023-01-11T11:02:51.194Z,11.70
2023-01-11T11:05:44.980Z,12.00
2023-01-11T11:08:17.353Z,12.30
2023-01-11T11:10:44.122Z,12.40
2023-01-11T11:13:10.697Z,12.20
2023-01-11T11:15:37.233Z,12.30
2023-01-11T11:18:04.565Z,12.40
2023-01-11T11:20:31.920Z,12.50
2023-01-11T11:22:58.849Z,12.70
2023-01-11T11:25:29.607Z,12.90
2023-01-11T11:28:07.084Z,12.80
2023-01-11T11:30:37.971Z,12.80
2023-01-11T11:33:14.021Z,12.70
2023-01-11T11:35:42.031Z,12.70
2023-01-11T11:38:20.445Z,12.80
2023-01-11T11:40:55.860Z,12.70
2023-01-11T11:43:26.621Z,12.70
2023-01-11T11:45:54.965Z,12.80
2023-01-11T11:48:22.241Z,12.90
2023-01-11T11:50:49.606Z,13.10
2023-01-11T11:53:25.545Z,13.20
2023-01-11T11:55:52.982Z,13.20
2023-01-11T11:58:21.892Z,13.20
2023-01-11T12:00:48.954Z,13.00
2023-01-11T12:03:18.274Z,13.10
2023-01-11T12:05:55.768Z,13.20
2023-01-11T12:08:24.491Z,13.20
2023-01-11T12:10:53.240Z,13.20
2023-01-11T12:13:27.410Z,12.80
2023-01-11T12:15:58.236Z,13.00
2023-01-11T12:18:32.770Z,12.90
2023-01-11T12:21:31.658Z,12.90
2023-01-11T12:24:19.237Z,12.90
2023-01-11T12:26:50.384Z,12.70
2023-01-11T12:29:26.060Z,12.50
2023-01-11T12:32:15.952Z,12.50
2023-01-11T12:35:01.464Z,12.50
2023-01-11T12:37:34.205Z,12.50
2023-01-11T12:40:11.606Z,12.40
2023-01-11T12:42:40.928Z,12.20
2023-01-11T12:45:19.369Z,12.20
2023-01-11T12:47:48.728Z,12.30
2023-01-11T12:50:33.766Z,12.20
2023-01-11T12:53:03.333Z,12.20
2023-01-11T12:55:34.860Z,12.20
2023-01-11T12:58:20.143Z,12.20
2023-01-11T13:00:46.680Z,12.20
2023-01-11T13:03:19.309Z,12.20
2023-01-11T13:05:45.843Z,12.30
2023-01-11T13:08:25.669Z,12.30
2023-01-11T13:10:52.346Z,12.30
2023-01-11T13:13:30.802Z,12.10
2023-01-11T13:16:00.828Z,12.10
2023-01-11T13:18:30.448Z,12.10
2023-01-11T13:21:02.345Z,12.20
2023-01-11T13:23:49.515Z,12.10
2023-01-11T13:26:22.553Z,12.10
2023-01-11T13:28:53.080Z,12.20
2023-01-11T13:31:20.134Z,12.20
2023-01-11T13:33:49.546Z,12.20
2023-01-11T13:36:23.110Z,12.10
2023-01-11T13:38:54.475Z,12.10
2023-01-11T13:41:22.911Z,12.10
2023-01-11T13:44:07.956Z,12.20
2023-01-11T13:46:53.444Z,12.20
2023-01-11T13:49:35.601Z,12.10
2023-01-11T13:52:05.149Z,12.10
2023-01-11T13:54:38.770Z,12.10
2023-01-11T13:57:09.803Z,12.10
2023-01-11T13:59:39.725Z,12.10
2023-01-11T14:02:15.549Z,12.10
2023-01-11T14:04:42.118Z,12.10
2023-01-11T14:07:24.048Z,12.30
2023-01-11T14:09:50.610Z,12.30
2023-01-11T14:12:29.903Z,12.20
2023-01-11T14:22:29.865Z,11.90
2023-01-11T14:25:02.628Z,11.60
